createdAt,value
2019-01-03T00:02:47.168Z,2.40
2019-01-03T00:08:08.801Z,2.35
2019-01-03T00:13:47.627Z,2.37
2019-01-03T00:19:09.770Z,2.85
2019-01-03T00:24:31.309Z,2.58
2019-01-03T00:30:09.268Z,2.62
2019-01-03T00:35:30.112Z,2.47
2019-01-03T00:40:59.689Z,2.42
2019-01-03T00:46:11.718Z,2.58
2019-01-03T00:51:37.503Z,2.58
2019-01-03T00:56:59.074Z,2.47
2019-01-03T01:02:37.054Z,2.90
2019-01-03T01:07:59.558Z,2.25
2019-01-03T01:13:21.114Z,2.40
2019-01-03T01:18:42.715Z,3.00
2019-01-03T01:24:08.322Z,2.12
2019-01-03T01:29:33.890Z,2.58
2019-01-03T01:35:03.198Z,2.70
2019-01-03T01:40:35.111Z,2.40
2019-01-03T01:45:58.197Z,2.33
2019-01-03T01:51:19.464Z,2.30
2019-01-03T01:56:41.452Z,2.47
2019-01-03T02:02:16.739Z,3.33
2019-01-03T02:07:38.626Z,3.27
2019-01-03T02:13:19.869Z,2.50
2019-01-03T02:18:53.358Z,2.35
2019-01-03T02:24:22.384Z,2.08
2019-01-03T02:29:44.414Z,3.35
2019-01-03T02:35:26.009Z,3.02
2019-01-03T02:41:01.027Z,2.50
2019-01-03T02:46:22.414Z,2.02
2019-01-03T02:51:48.101Z,2.12
2019-01-03T02:57:20.304Z,2.50
2019-01-03T03:02:48.872Z,2.85
2019-01-03T03:08:24.077Z,2.72
2019-01-03T03:13:41.700Z,2.80
2019-01-03T03:19:04.696Z,2.87
2019-01-03T03:24:26.425Z,2.90
2019-01-03T03:30:01.442Z,2.60
2019-01-03T03:35:33.474Z,3.00
2019-01-03T03:40:56.869Z,3.33
2019-01-03T03:46:19.026Z,2.60
2019-01-03T03:51:40.606Z,2.85
2019-01-03T03:56:58.064Z,2.70
2019-01-03T04:02:25.140Z,3.75
2019-01-03T04:07:47.443Z,2.92
2019-01-03T04:13:19.235Z,2.95
2019-01-03T04:18:48.418Z,2.10
2019-01-03T04:24:11.256Z,2.55
2019-01-03T04:29:43.302Z,3.47
2019-01-03T04:35:15.283Z,2.72
2019-01-03T04:40:37.478Z,3.15
2019-01-03T04:46:09.965Z,3.98
2019-01-03T04:51:44.461Z,3.55
2019-01-03T04:57:10.404Z,3.50
2019-01-03T05:02:33.010Z,3.98
2019-01-03T05:07:57.372Z,6.10
2019-01-03T05:13:23.949Z,5.05
2019-01-03T05:18:47.136Z,5.70
2019-01-03T05:24:10.067Z,4.53
2019-01-03T05:29:34.008Z,4.60
2019-01-03T05:35:00.221Z,6.12
2019-01-03T05:40:22.129Z,4.70
2019-01-03T05:45:58.685Z,11.40
2019-01-03T05:51:21.452Z,9.80
2019-01-03T05:56:44.192Z,8.80
2019-01-03T06:02:16.777Z,4.25
2019-01-03T06:07:38.116Z,6.10
2019-01-03T06:13:03.871Z,8.13
2019-01-03T06:18:45.014Z,5.58
2019-01-03T06:24:18.060Z,6.00
2019-01-03T06:29:44.565Z,6.80
2019-01-03T06:35:13.996Z,8.05
2019-01-03T06:40:39.933Z,6.25
2019-01-03T06:46:04.280Z,8.78
2019-01-03T06:51:34.037Z,16.00
2019-01-03T06:56:55.785Z,7.35
2019-01-03T07:02:17.299Z,8.70
2019-01-03T07:07:40.479Z,8.23
2019-01-03T07:13:09.486Z,12.88
2019-01-03T07:18:38.388Z,9.90
2019-01-03T07:24:04.223Z,8.53
2019-01-03T07:29:26.660Z,6.65
2019-01-03T07:34:52.938Z,6.55
2019-01-03T07:40:18.319Z,9.50
2019-01-03T07:45:39.148Z,7.70
2019-01-03T07:51:02.045Z,7.47
2019-01-03T07:56:34.140Z,6.62
2019-01-03T08:02:08.962Z,6.75
2019-01-03T08:07:42.722Z,8.05
2019-01-03T08:13:04.801Z,7.80
2019-01-03T08:18:42.707Z,6.58
2019-01-03T08:24:01.490Z,7.80
2019-01-03T08:29:24.524Z,13.72
2019-01-03T08:34:49.892Z,12.68
2019-01-03T08:40:11.534Z,13.15
2019-01-03T08:45:40.386Z,7.83
2019-01-03T08:51:02.707Z,4.92
2019-01-03T08:56:37.708Z,7.35
2019-01-03T09:01:58.865Z,9.03
2019-01-03T09:07:20.571Z,7.40
2019-01-03T09:12:46.369Z,6.58
2019-01-03T09:18:12.862Z,8.40
2019-01-03T09:23:41.643Z,9.98
2019-01-03T09:29:06.339Z,13.50
2019-01-03T09:34:42.183Z,14.78
2019-01-03T09:40:04.468Z,7.30
2019-01-03T09:45:08.233Z,8.13
2019-01-03T09:50:11.628Z,10.18
2019-01-03T09:55:15.128Z,7.12
2019-01-03T10:00:19.219Z,5.97
2019-01-03T10:05:23.806Z,5.60
2019-01-03T10:10:27.175Z,5.35
2019-01-03T10:15:30.686Z,5.78
2019-01-03T10:20:34.300Z,4.67
2019-01-03T10:25:38.211Z,5.97
2019-01-03T10:30:42.229Z,4.90
2019-01-03T10:35:45.924Z,5.37
2019-01-03T10:40:49.593Z,6.28
2019-01-03T10:45:53.055Z,8.15
2019-01-03T10:50:56.874Z,6.00
2019-01-03T10:56:00.650Z,5.15
2019-01-03T11:01:04.504Z,7.28
2019-01-03T11:06:07.878Z,6.62
2019-01-03T11:11:13.315Z,6.62
2019-01-03T11:16:16.651Z,6.90
2019-01-03T11:21:19.957Z,5.75
2019-01-03T11:26:23.508Z,6.28
2019-01-03T11:31:27.661Z,7.30
2019-01-03T11:36:31.384Z,4.87
2019-01-03T11:41:35.081Z,6.65
2019-01-03T11:46:40.585Z,6.08
2019-01-03T11:51:45.356Z,6.80
2019-01-03T11:56:48.968Z,6.92
2019-01-03T12:01:53.555Z,9.38
2019-01-03T12:06:56.981Z,7.00
2019-01-03T12:12:00.744Z,8.70
2019-01-03T12:17:04.764Z,5.85
2019-01-03T12:22:09.128Z,6.22
2019-01-03T12:27:12.630Z,11.22
2019-01-03T12:32:16.533Z,9.55
2019-01-03T12:37:21.883Z,7.65
2019-01-03T12:42:25.622Z,9.70
2019-01-03T12:47:29.062Z,9.73
2019-01-03T12:52:33.817Z,7.55
2019-01-03T12:57:38.838Z,10.00
2019-01-03T13:02:42.336Z,7.45
2019-01-03T13:07:45.883Z,10.30
2019-01-03T13:12:49.723Z,5.83
2019-01-03T13:17:53.304Z,8.43
2019-01-03T13:22:57.579Z,6.05
2019-01-03T13:28:03.822Z,7.65
2019-01-03T13:33:10.246Z,6.50
2019-01-03T13:38:17.531Z,14.68
2019-01-03T13:43:20.934Z,11.28
2019-01-03T13:48:24.331Z,11.30
2019-01-03T13:53:27.669Z,14.58
2019-01-03T13:58:31.671Z,5.92
2019-01-03T14:03:36.135Z,8.28
2019-01-03T14:08:41.384Z,11.25
2019-01-03T14:13:47.407Z,8.50
2019-01-03T14:18:50.897Z,17.02
2019-01-03T14:23:54.444Z,10.23
2019-01-03T14:28:57.857Z,9.20
2019-01-03T14:34:01.776Z,9.20
2019-01-03T14:39:06.491Z,10.40
2019-01-03T14:44:11.425Z,16.07
2019-01-03T14:49:14.948Z,13.85
2019-01-03T14:54:21.351Z,11.05
2019-01-03T14:59:26.477Z,8.35
2019-01-03T15:04:30.453Z,12.98
2019-01-03T15:09:34.159Z,12.80
2019-01-03T15:14:37.797Z,9.88
2019-01-03T15:19:42.435Z,12.60
2019-01-03T15:24:45.887Z,17.52
2019-01-03T15:29:49.868Z,23.67
2019-01-03T15:34:54.043Z,15.03
2019-01-03T15:39:58.806Z,13.48
2019-01-03T15:45:07.285Z,17.98
2019-01-03T15:50:10.936Z,11.18
2019-01-03T15:55:14.489Z,19.87
2019-01-03T16:00:18.369Z,17.57
2019-01-03T16:05:22.789Z,24.27
2019-01-03T16:10:26.210Z,20.35
2019-01-03T16:15:29.772Z,10.75
2019-01-03T16:20:33.352Z,20.17
2019-01-03T16:25:38.246Z,20.60
2019-01-03T16:30:42.257Z,12.45
2019-01-03T16:35:48.221Z,19.45
2019-01-03T16:40:51.713Z,15.83
2019-01-03T16:46:03.334Z,27.65
2019-01-03T16:51:12.012Z,18.32
2019-01-03T16:56:15.512Z,9.63
2019-01-03T17:01:19.051Z,7.22
2019-01-03T17:06:26.200Z,5.30
2019-01-03T17:11:30.031Z,14.00
2019-01-03T17:16:33.686Z,9.45
2019-01-03T17:21:37.097Z,9.95
2019-01-03T17:26:42.172Z,7.90
2019-01-03T17:31:45.761Z,8.30
2019-01-03T17:36:49.451Z,4.78
2019-01-03T17:41:53.116Z,7.30
2019-01-03T17:46:57.483Z,3.85
2019-01-03T17:52:00.850Z,17.70
2019-01-03T17:57:05.542Z,8.43
2019-01-03T18:02:09.066Z,11.57
2019-01-03T18:07:13.140Z,8.75
2019-01-03T18:12:16.552Z,8.55
2019-01-03T18:17:20.247Z,15.93
2019-01-03T18:22:23.597Z,13.13
2019-01-03T18:27:27.122Z,10.53
2019-01-03T18:32:30.553Z,8.55
2019-01-03T18:37:34.083Z,6.97
2019-01-03T18:42:38.919Z,6.92
2019-01-03T18:47:42.799Z,5.47
2019-01-03T18:52:47.682Z,4.75
2019-01-03T18:57:51.724Z,9.88
2019-01-03T19:02:57.554Z,3.47
2019-01-03T19:08:05.098Z,4.50
2019-01-03T19:13:09.082Z,3.70
2019-01-03T19:18:12.656Z,11.15
2019-01-03T19:23:16.000Z,2.40
2019-01-03T19:28:19.346Z,4.83
2019-01-03T19:33:22.758Z,9.48
2019-01-03T19:38:26.131Z,3.75
2019-01-03T19:43:30.623Z,4.12
2019-01-03T19:48:34.148Z,3.17
2019-01-03T19:53:37.388Z,4.22
2019-01-03T19:58:40.860Z,3.05
2019-01-03T20:03:44.299Z,1.92
2019-01-03T20:08:47.729Z,25.50
2019-01-03T20:13:52.143Z,7.15
2019-01-03T20:21:56.609Z,3.27
2019-01-03T20:27:02.646Z,3.50
2019-01-03T20:32:07.195Z,4.65
2019-01-03T20:37:11.416Z,1.90
2019-01-03T20:42:15.981Z,4.03
2019-01-03T20:47:20.088Z,3.27
2019-01-03T20:52:28.082Z,3.60
2019-01-03T20:57:32.461Z,2.98
2019-01-03T21:02:37.589Z,3.05
2019-01-03T21:07:42.367Z,4.60
2019-01-03T21:12:47.090Z,4.15
2019-01-03T21:17:51.177Z,3.12
2019-01-03T21:22:59.590Z,3.15
2019-01-03T21:28:10.406Z,2.40
2019-01-03T21:33:15.090Z,3.83
2019-01-03T21:38:19.336Z,2.42
2019-01-03T21:43:24.753Z,2.42
2019-01-03T21:48:28.954Z,3.20
2019-01-03T21:53:35.452Z,2.22
2019-01-03T21:58:39.636Z,2.98
2019-01-03T22:03:43.917Z,2.60
2019-01-03T22:08:48.259Z,3.25
2019-01-03T22:13:52.502Z,3.47
2019-01-03T22:18:56.630Z,3.12
2019-01-03T22:24:00.693Z,3.65
2019-01-03T22:29:04.758Z,2.72
2019-01-03T22:34:08.841Z,2.80
2019-01-03T22:39:13.005Z,4.78
2019-01-03T22:44:17.275Z,5.58
2019-01-03T22:49:21.432Z,3.05
2019-01-03T22:54:25.588Z,3.25
2019-01-03T22:59:29.772Z,3.20
2019-01-03T23:04:34.708Z,2.55
2019-01-03T23:09:39.139Z,3.95
2019-01-03T23:14:43.371Z,3.83
2019-01-03T23:19:48.076Z,4.37
2019-01-03T23:24:52.261Z,2.45
2019-01-03T23:29:56.838Z,3.00
2019-01-03T23:35:00.969Z,4.72
2019-01-03T23:40:05.295Z,2.58
2019-01-03T23:45:18.550Z,3.15
2019-01-03T23:50:31.230Z,2.42
2019-01-03T23:55:40.466Z,2.58
